Time;durP1;ratioP1;P1;durP2;ratioP2;P2;SDS_P1;SDS_P2;PMS_P1;PMS_P2;Temp;Humidity;BMP_temperature;BMP_pressure;BME280_temperature;BME280_humidity;BME280_pressure;Samples;Min_cycle;Max_cycle;Signal;HPM_P1;HPM_P2
2022/07/24 00:01:59;;;;;;;1.65;1.25;;;;;;;19.77;57.76;100836.25;5077200;28;20032;-73
2022/07/24 00:04:24;;;;;;;2.15;1.40;;;;;;;19.73;58.45;100834.50;5077214;28;20461;-73
2022/07/24 00:06:50;;;;;;;1.63;1.23;;;;;;;19.68;58.29;100829.91;5075975;28;20426;-73
2022/07/24 00:09:15;;;;;;;2.03;1.33;;;;;;;19.65;58.31;100833.38;5077008;28;20024;-73
2022/07/24 00:11:41;;;;;;;2.28;1.17;;;;;;;19.57;58.91;100831.47;5077347;28;20032;-73
2022/07/24 00:14:06;;;;;;;1.50;1.20;;;;;;;19.57;59.27;100829.47;5077223;28;20429;-73
2022/07/24 00:16:31;;;;;;;3.08;1.10;;;;;;;19.50;59.53;100832.06;5076882;28;20056;-73
2022/07/24 00:18:57;;;;;;;2.13;1.33;;;;;;;19.49;59.41;100830.38;5058713;28;20035;-73
2022/07/24 00:21:22;;;;;;;2.53;1.40;;;;;;;19.43;59.42;100831.78;5075102;28;20032;-73
2022/07/24 00:23:48;;;;;;;1.70;1.23;;;;;;;19.42;59.77;100833.78;5076936;28;20095;-73
2022/07/24 00:26:13;;;;;;;2.55;1.20;;;;;;;19.36;59.55;100834.31;5075911;28;20040;-73
2022/07/24 00:28:39;;;;;;;1.45;1.15;;;;;;;19.29;60.56;100832.09;5076860;28;20477;-73
2022/07/24 00:31:05;;;;;;;2.00;1.15;;;;;;;19.28;59.67;100833.25;5076913;28;20024;-73
2022/07/24 00:33:30;;;;;;;1.75;1.35;;;;;;;19.24;60.42;100825.84;5075453;28;20059;-73
2022/07/24 00:35:56;;;;;;;1.80;1.23;;;;;;;19.18;60.53;100830.84;5075635;28;20036;-73
2022/07/24 00:38:21;;;;;;;2.20;1.50;;;;;;;19.15;60.51;100828.72;5075339;28;20027;-73
2022/07/24 00:40:47;;;;;;;1.33;1.15;;;;;;;19.11;60.98;100824.94;5076665;28;20028;-73
2022/07/24 00:43:12;;;;;;;2.33;1.50;;;;;;;19.07;61.20;100824.00;5076500;28;20028;-73
2022/07/24 00:45:38;;;;;;;2.50;1.38;;;;;;;19.03;61.02;100820.22;5076726;28;20093;-73
2022/07/24 00:48:04;;;;;;;3.40;1.40;;;;;;;19.00;61.11;100812.47;5058274;28;20441;-73
2022/07/24 00:50:30;;;;;;;1.65;1.45;;;;;;;18.95;61.26;100814.31;5076504;28;20079;-73
2022/07/24 00:52:56;;;;;;;3.30;1.30;;;;;;;18.94;62.03;100809.88;5075133;28;20086;-73
2022/07/24 00:55:21;;;;;;;2.17;1.23;;;;;;;18.89;61.13;100810.06;5076496;28;20024;-73
2022/07/24 00:57:48;;;;;;;1.88;1.10;;;;;;;18.86;61.55;100802.31;5075485;28;20037;-73
2022/07/24 01:00:14;;;;;;;2.50;1.38;;;;;;;18.83;62.00;100802.16;5075498;28;20032;-73
2022/07/24 01:02:41;;;;;;;2.42;1.50;;;;;;;18.78;62.02;100800.41;5074139;28;20032;-73
2022/07/24 01:05:10;;;;;;;3.70;1.15;;;;;;;18.77;62.59;100795.09;5075438;28;20101;-73
2022/07/24 01:07:36;;;;;;;1.42;1.10;;;;;;;18.73;61.91;100797.75;5075449;28;20071;-73
2022/07/24 01:10:01;;;;;;;1.23;0.90;;;;;;;18.69;62.40;100786.38;5074291;28;20035;-73
2022/07/24 01:12:27;;;;;;;2.30;1.17;;;;;;;18.64;62.13;100788.56;5073628;28;20056;-73
2022/07/24 01:14:52;;;;;;;1.50;1.25;;;;;;;18.62;62.77;100793.69;5074076;28;20481;-73
2022/07/24 01:17:18;;;;;;;1.92;1.40;;;;;;;18.59;62.53;100791.56;5075017;28;20036;-73
2022/07/24 01:19:43;;;;;;;3.20;1.10;;;;;;;18.54;62.68;100789.78;5057487;28;20028;-73
2022/07/24 01:22:09;;;;;;;1.60;1.35;;;;;;;18.50;62.88;100789.63;5053916;28;20032;-73
2022/07/24 01:24:34;;;;;;;1.85;1.40;;;;;;;18.48;62.73;100786.34;5070541;28;20032;-73
2022/07/24 01:27:00;;;;;;;2.17;1.25;;;;;;;18.43;63.14;100792.16;5075255;28;20362;-73
2022/07/24 01:29:25;;;;;;;2.83;1.40;;;;;;;18.39;63.08;100782.75;5075298;28;20055;-73
2022/07/24 01:31:51;;;;;;;3.08;1.20;;;;;;;18.37;62.81;100785.09;5074866;28;20041;-72
2022/07/24 01:34:16;;;;;;;1.38;1.10;;;;;;;18.35;63.30;100783.78;5072539;28;20025;-73
2022/07/24 01:36:42;;;;;;;1.52;1.20;;;;;;;18.29;63.45;100771.91;5075091;28;20028;-73
2022/07/24 01:39:07;;;;;;;2.88;1.50;;;;;;;18.27;63.65;100772.22;5074933;28;20035;-73
2022/07/24 01:41:33;;;;;;;1.58;1.30;;;;;;;18.24;63.67;100774.91;5075060;28;20107;-73
2022/07/24 01:43:58;;;;;;;3.78;1.42;;;;;;;18.21;63.53;100770.78;5057095;28;20044;-73
2022/07/24 01:46:24;;;;;;;1.75;1.30;;;;;;;18.18;63.72;100765.03;5074879;28;20029;-73
2022/07/24 01:48:49;;;;;;;1.33;1.02;;;;;;;18.18;64.06;100765.03;5074699;28;20077;-73
2022/07/24 01:51:15;;;;;;;1.30;1.20;;;;;;;18.11;63.69;100762.75;5074794;28;20529;-73
2022/07/24 01:53:40;;;;;;;2.72;1.20;;;;;;;18.08;64.04;100758.63;5073454;28;20020;-73
2022/07/24 01:56:06;;;;;;;1.98;1.17;;;;;;;18.09;63.69;100754.66;5074943;28;20444;-73
2022/07/24 01:58:32;;;;;;;1.95;1.20;;;;;;;17.98;64.32;100758.19;5033121;28;1187325;-73
2022/07/24 02:00:57;;;;;;;1.58;1.30;;;;;;;17.96;64.63;100761.31;5075728;28;20029;-73
2022/07/24 02:03:23;;;;;;;1.60;0.95;;;;;;;17.94;65.08;100766.47;5074298;28;20549;-73
2022/07/24 02:05:48;;;;;;;2.78;1.45;;;;;;;17.91;64.07;100764.31;5075697;28;20032;-73
2022/07/24 02:08:14;;;;;;;2.15;1.30;;;;;;;17.90;64.66;100765.50;5075680;28;20031;-72
2022/07/24 02:10:39;;;;;;;2.65;1.30;;;;;;;17.87;65.01;100760.56;5075615;28;20103;-72
2022/07/24 02:13:05;;;;;;;1.67;1.20;;;;;;;17.81;64.81;100759.91;5074450;28;20036;-72
2022/07/24 02:15:31;;;;;;;1.55;1.20;;;;;;;17.76;64.88;100760.06;5074318;28;20481;-73
2022/07/24 02:17:58;;;;;;;2.35;1.40;;;;;;;17.75;65.26;100769.66;5075343;28;20390;-72
2022/07/24 02:20:24;;;;;;;1.85;1.08;;;;;;;17.72;65.20;100763.88;5075537;28;20028;-73
2022/07/24 02:22:49;;;;;;;2.47;1.20;;;;;;;17.72;64.71;100752.63;5075506;28;20682;-73
2022/07/24 02:25:15;;;;;;;2.50;1.40;;;;;;;17.67;65.29;100764.09;5075422;28;20032;-73
2022/07/24 02:27:41;;;;;;;1.35;1.08;;;;;;;17.64;65.80;100760.78;5075616;28;20473;-72
2022/07/24 02:30:08;;;;;;;1.63;1.30;;;;;;;17.62;65.43;100751.03;5074242;28;20055;-73
2022/07/24 02:32:34;;;;;;;2.25;1.30;;;;;;;17.57;65.94;100751.22;5075423;28;20115;-73
2022/07/24 02:34:59;;;;;;;1.58;1.23;;;;;;;17.54;65.72;100747.09;5074157;28;20033;-73
2022/07/24 02:37:25;;;;;;;1.67;1.20;;;;;;;17.53;66.21;100745.44;5075264;28;20056;-72
2022/07/24 02:39:50;;;;;;;2.17;1.10;;;;;;;17.50;66.42;100746.13;5075361;28;20447;-73
2022/07/24 02:42:15;;;;;;;2.25;1.20;;;;;;;17.47;66.29;100740.34;5075325;28;20032;-73
2022/07/24 02:44:41;;;;;;;1.30;1.20;;;;;;;17.46;65.84;100745.13;5076979;28;20059;-73
2022/07/24 02:47:06;;;;;;;2.28;1.25;;;;;;;17.40;65.99;100740.84;5078656;28;20086;-73
2022/07/24 02:49:32;;;;;;;1.73;1.30;;;;;;;17.37;66.27;100741.53;5078476;28;21185;-73
2022/07/24 02:51:57;;;;;;;2.03;1.17;;;;;;;17.37;66.84;100747.16;5079046;28;20024;-73
2022/07/24 02:54:23;;;;;;;1.80;1.42;;;;;;;17.30;66.53;100742.06;5077478;28;20040;-73
2022/07/24 02:56:48;;;;;;;1.90;1.58;;;;;;;17.32;66.31;100750.94;5077651;28;20032;-73
2022/07/24 02:59:14;;;;;;;1.40;1.27;;;;;;;17.27;67.02;100741.88;5078125;28;20493;-73
2022/07/24 03:01:40;;;;;;;1.45;0.98;;;;;;;17.25;66.40;100741.41;5078768;28;20032;-73
2022/07/24 03:04:05;;;;;;;2.25;1.20;;;;;;;17.19;66.68;100741.59;5078182;28;20031;-73
2022/07/24 03:06:31;;;;;;;2.10;1.15;;;;;;;17.18;67.03;100739.09;5078491;28;20133;-73
2022/07/24 03:08:56;;;;;;;2.03;1.27;;;;;;;17.14;67.09;100746.53;5078554;28;20025;-72
2022/07/24 03:11:21;;;;;;;2.05;1.20;;;;;;;17.12;67.04;100735.63;5078536;28;20058;-73
2022/07/24 03:13:47;;;;;;;1.77;1.20;;;;;;;17.08;67.21;100737.47;5078335;28;20036;-72
2022/07/24 03:16:12;;;;;;;1.92;1.30;;;;;;;17.05;67.30;100735.34;5078233;28;20028;-72
2022/07/24 03:18:38;;;;;;;3.47;1.15;;;;;;;17.03;67.47;100737.63;5078061;28;20047;-72
2022/07/24 03:21:04;;;;;;;2.00;1.17;;;;;;;17.00;67.29;100735.50;5078193;28;20029;-73
2022/07/24 03:23:29;;;;;;;2.17;1.17;;;;;;;16.97;67.21;100733.38;5078053;28;20042;-73
2022/07/24 03:25:55;;;;;;;2.17;1.23;;;;;;;16.94;67.63;100734.84;5078333;28;20033;-72
2022/07/24 03:28:20;;;;;;;1.70;1.30;;;;;;;16.91;67.86;100724.28;5076906;28;20028;-73
2022/07/24 03:30:46;;;;;;;3.13;1.30;;;;;;;16.91;68.00;100734.66;5078025;28;20440;-73
2022/07/24 03:33:11;;;;;;;2.13;1.23;;;;;;;16.87;68.06;100730.88;5077868;28;20035;-72
2022/07/24 03:35:37;;;;;;;1.77;1.33;;;;;;;16.85;67.95;100727.59;5078134;28;20029;-72
2022/07/24 03:38:03;;;;;;;2.00;1.15;;;;;;;16.81;68.32;100737.84;5077726;28;20029;-72
2022/07/24 03:40:28;;;;;;;1.80;1.10;;;;;;;16.78;68.49;100738.50;5076711;28;20071;-72
2022/07/24 03:42:53;;;;;;;1.77;1.50;;;;;;;16.75;68.07;100735.16;5077883;28;20481;-72
2022/07/24 03:45:19;;;;;;;1.55;1.23;;;;;;;16.72;68.30;100738.63;5077572;28;20032;-73
2022/07/24 03:47:45;;;;;;;1.55;1.20;;;;;;;16.70;68.35;100726.91;5077385;28;20096;-73
2022/07/24 03:50:10;;;;;;;2.13;1.10;;;;;;;16.68;68.34;100731.19;5076444;28;20548;-73
2022/07/24 03:52:36;;;;;;;1.52;1.30;;;;;;;16.66;68.38;100731.53;5077632;28;20086;-73
2022/07/24 03:55:01;;;;;;;2.20;1.30;;;;;;;16.65;68.59;100729.88;5077196;28;20041;-73
2022/07/24 03:57:27;;;;;;;3.13;1.40;;;;;;;16.60;68.62;100724.41;5076436;28;20392;-73
2022/07/24 03:59:52;;;;;;;5.18;1.27;;;;;;;16.58;68.50;100732.34;5076390;28;20040;-73
2022/07/24 04:02:18;;;;;;;2.45;1.20;;;;;;;16.55;68.52;100727.41;5077132;28;20037;-73
2022/07/24 04:04:43;;;;;;;1.85;1.23;;;;;;;16.56;68.65;100717.00;5059442;28;20047;-73
2022/07/24 04:07:09;;;;;;;1.50;1.20;;;;;;;16.55;68.87;100713.41;5077343;28;20535;-72
2022/07/24 04:09:34;;;;;;;1.85;1.35;;;;;;;16.50;68.88;100707.94;5077390;28;20025;-72
2022/07/24 04:12:00;;;;;;;1.52;1.30;;;;;;;16.48;69.30;100715.84;5077197;28;20082;-72
2022/07/24 04:14:25;;;;;;;1.75;1.27;;;;;;;16.47;68.86;100711.41;5077288;28;20054;-72
2022/07/24 04:16:51;;;;;;;1.50;1.40;;;;;;;16.45;69.40;100710.91;5075789;28;20025;-72
2022/07/24 04:19:16;;;;;;;1.42;1.30;;;;;;;16.40;69.31;100716.66;5076829;28;20393;-72
2022/07/24 04:21:42;;;;;;;1.92;1.60;;;;;;;16.42;69.16;100717.16;5076948;28;20044;-72
2022/07/24 04:24:07;;;;;;;1.85;1.40;;;;;;;16.39;69.74;100724.25;5075833;28;20035;-72
2022/07/24 04:26:33;;;;;;;1.58;1.30;;;;;;;16.39;69.62;100718.66;5075745;28;20035;-72
2022/07/24 04:28:58;;;;;;;1.60;1.25;;;;;;;16.34;69.20;100709.56;5076837;28;20066;-72
2022/07/24 04:31:24;;;;;;;1.45;1.35;;;;;;;16.32;69.98;100718.31;5076920;28;20705;-72
2022/07/24 04:33:49;;;;;;;1.40;1.30;;;;;;;16.27;69.87;100710.91;5076646;28;20043;-73
2022/07/24 04:36:14;;;;;;;2.40;1.42;;;;;;;16.28;69.42;100711.72;5076692;28;20086;-73
2022/07/24 04:38:40;;;;;;;1.30;1.20;;;;;;;16.27;69.62;100701.66;5075303;28;20055;-73
2022/07/24 04:41:06;;;;;;;1.98;1.50;;;;;;;16.27;69.99;100712.88;5075514;28;20032;-73
2022/07/24 04:43:31;;;;;;;2.20;1.45;;;;;;;16.24;70.88;100714.34;5076312;28;20028;-73
2022/07/24 04:45:56;;;;;;;1.45;1.35;;;;;;;16.25;70.72;100706.78;5076549;28;20037;-72
2022/07/24 04:48:22;;;;;;;1.70;1.50;;;;;;;16.23;70.75;100714.66;5076342;28;20028;-72
2022/07/24 04:50:47;;;;;;;1.73;1.50;;;;;;;16.24;71.99;100708.75;5076372;28;20036;-73
2022/07/24 04:53:13;;;;;;;2.55;1.30;;;;;;;16.26;71.48;100705.59;5076440;28;20385;-73
2022/07/24 04:55:38;;;;;;;1.90;1.23;;;;;;;16.29;71.75;100711.38;5076355;28;20044;-72
2022/07/24 04:58:04;;;;;;;1.63;1.40;;;;;;;16.31;72.45;100716.66;5076110;28;20048;-72
2022/07/24 05:00:29;;;;;;;2.20;1.70;;;;;;;16.35;72.79;100712.03;5076163;28;20035;-72
2022/07/24 05:02:55;;;;;;;2.55;1.50;;;;;;;16.41;72.89;100710.75;5076148;28;20033;-72
2022/07/24 05:05:20;;;;;;;2.15;1.73;;;;;;;16.48;74.13;100716.66;5076214;28;20032;-72
2022/07/24 05:07:46;;;;;;;3.20;1.60;;;;;;;16.57;74.19;100711.06;5076189;28;20078;-73
2022/07/24 05:10:11;;;;;;;2.25;1.80;;;;;;;16.66;76.95;100706.31;5076152;28;20041;-73
2022/07/24 05:12:37;;;;;;;2.58;1.52;;;;;;;16.80;76.34;100708.13;5075092;28;20408;-72
2022/07/24 05:15:04;;;;;;;2.67;1.80;;;;;;;16.90;76.96;100710.59;5074910;28;20036;-72
2022/07/24 05:17:29;;;;;;;3.10;1.70;;;;;;;17.02;77.23;100707.94;5075650;28;20509;-72
2022/07/24 05:19:55;;;;;;;1.80;1.60;;;;;;;17.15;78.12;100706.09;5076100;28;20055;-72
2022/07/24 05:22:20;;;;;;;2.25;1.70;;;;;;;17.29;81.60;100703.09;5075949;28;20032;-73
2022/07/24 05:24:46;;;;;;;2.15;1.67;;;;;;;17.41;78.56;100704.03;5076192;28;20039;-73
2022/07/24 05:27:11;;;;;;;1.27;1.13;;;;;;;17.57;72.50;100701.47;5075991;28;20036;-72
2022/07/24 05:29:37;;;;;;;2.08;1.50;;;;;;;17.74;73.32;100700.59;5074803;28;20033;-73
2022/07/24 05:32:02;;;;;;;3.53;1.48;;;;;;;17.91;73.00;100699.69;5075939;28;20028;-73
2022/07/24 05:34:29;;;;;;;2.08;1.58;;;;;;;18.06;69.87;100689.88;5074648;28;20031;-73
2022/07/24 05:36:54;;;;;;;3.05;1.40;;;;;;;18.25;70.02;100689.44;5075776;28;20519;-72
2022/07/24 05:39:20;;;;;;;3.70;1.40;;;;;;;18.42;69.29;100692.09;5074131;28;20029;-69
2022/07/24 05:41:45;;;;;;;1.92;1.30;;;;;;;18.60;68.75;100689.13;5075995;28;20024;-69
2022/07/24 05:44:11;;;;;;;1.70;1.00;;;;;;;18.78;67.50;100681.38;5075873;28;20029;-70
2022/07/24 05:46:36;;;;;;;1.50;1.30;;;;;;;18.95;66.62;100679.25;5074575;28;20040;-70
2022/07/24 05:49:02;;;;;;;1.67;1.17;;;;;;;19.13;66.81;100685.50;5075704;28;20477;-70
2022/07/24 05:51:27;;;;;;;3.35;1.10;;;;;;;19.32;65.40;100689.78;5074503;28;20033;-70
2022/07/24 05:53:53;;;;;;;1.90;1.20;;;;;;;19.51;66.07;100684.41;5041298;28;20395;-70
2022/07/24 05:56:19;;;;;;;1.77;1.30;;;;;;;19.69;64.96;100682.19;5074563;28;20032;-70
2022/07/24 05:58:44;;;;;;;1.38;1.20;;;;;;;19.90;64.61;100681.28;5075415;28;20155;-76
2022/07/24 06:01:10;;;;;;;1.70;1.17;;;;;;;20.07;63.16;100681.03;5041493;28;20539;-76
2022/07/24 06:03:36;;;;;;;1.42;1.13;;;;;;;20.26;62.86;100683.22;5057018;28;20025;-76
2022/07/24 06:06:03;;;;;;;1.65;1.38;;;;;;;20.44;62.24;100680.94;5075995;28;20365;-75
2022/07/24 06:08:29;;;;;;;2.55;1.45;;;;;;;20.63;61.83;100692.44;5057818;28;20017;-72
2022/07/24 06:10:54;;;;;;;3.60;1.20;;;;;;;20.82;61.32;100686.13;5075685;28;20036;-73
2022/07/24 06:13:20;;;;;;;1.25;1.05;;;;;;;21.00;60.98;100683.81;5074415;28;20025;-73
2022/07/24 06:15:45;;;;;;;2.42;1.10;;;;;;;21.17;62.03;100689.16;5075841;28;20040;-73
2022/07/24 06:18:13;;;;;;;2.25;1.20;;;;;;;21.31;62.89;100676.56;5075310;28;20086;-73
2022/07/24 06:20:39;;;;;;;3.28;1.20;;;;;;;21.53;60.39;100680.81;5078860;28;20025;-72
2022/07/24 06:23:04;;;;;;;3.25;1.50;;;;;;;21.71;60.53;100681.28;5079325;28;20542;-72
2022/07/24 06:25:30;;;;;;;2.47;1.17;;;;;;;21.91;59.58;100677.31;5079273;28;20041;-73
2022/07/24 06:27:57;;;;;;;1.83;1.23;;;;;;;22.05;60.33;100674.84;5078328;28;20059;-73
2022/07/24 06:30:24;;;;;;;2.55;1.40;;;;;;;22.22;59.62;100672.81;5072452;28;20060;-73
2022/07/24 06:32:51;;;;;;;1.48;1.20;;;;;;;22.44;58.17;100674.94;5079081;28;20056;-67
2022/07/24 06:35:16;;;;;;;1.60;1.10;;;;;;;22.61;57.85;100678.53;5077441;28;20032;-66
2022/07/24 06:37:42;;;;;;;2.17;1.20;;;;;;;22.77;57.69;100673.59;5061180;28;20421;-66
2022/07/24 06:40:08;;;;;;;3.60;1.30;;;;;;;22.93;57.56;100673.53;5033670;28;20053;-67
2022/07/24 06:42:34;;;;;;;1.75;1.15;;;;;;;23.08;57.27;100669.78;5061316;28;20101;-66
2022/07/24 06:44:59;;;;;;;3.05;1.02;;;;;;;23.20;57.10;100680.13;5110715;28;20032;-66
2022/07/24 06:47:26;;;;;;;1.48;0.90;;;;;;;23.36;57.07;100678.00;5077571;28;20032;-66
2022/07/24 06:49:54;;;;;;;2.08;1.00;;;;;;;23.53;56.33;100675.88;5057704;28;20028;-68
2022/07/24 06:52:20;;;;;;;2.40;1.30;;;;;;;23.71;55.92;100674.19;5060105;28;20111;-67
2022/07/24 06:54:45;;;;;;;2.55;1.20;;;;;;;23.84;55.87;100681.28;5060895;28;20028;-67
2022/07/24 06:57:11;;;;;;;1.73;0.90;;;;;;;23.95;55.97;100680.63;5061004;28;20043;-67
2022/07/24 06:59:36;;;;;;;2.38;1.00;;;;;;;24.14;55.43;100674.84;5075868;28;20045;-68
2022/07/24 07:02:02;;;;;;;1.95;0.90;;;;;;;24.28;55.29;100668.56;5060415;28;20145;-67
2022/07/24 07:04:27;;;;;;;3.15;1.00;;;;;;;24.42;54.71;100677.28;5060591;28;20040;-67
2022/07/24 07:06:53;;;;;;;2.22;0.98;;;;;;;24.53;54.69;100674.63;5024300;28;20425;-67
2022/07/24 07:09:18;;;;;;;2.30;1.20;;;;;;;24.64;54.44;100671.94;5060518;28;20021;-67
2022/07/24 07:11:44;;;;;;;2.63;1.13;;;;;;;24.81;53.99;100671.31;5060674;28;20032;-67
2022/07/24 07:14:09;;;;;;;3.00;1.10;;;;;;;24.92;53.81;100672.25;5057636;28;20033;-67
2022/07/24 07:16:35;;;;;;;1.45;1.00;;;;;;;25.06;53.62;100665.09;5060621;28;20040;-67
2022/07/24 07:19:00;;;;;;;1.75;1.17;;;;;;;25.14;53.14;100675.34;5059994;28;20051;-67
2022/07/24 07:21:26;;;;;;;1.45;1.00;;;;;;;25.27;52.82;100673.06;5077202;28;20055;-67
2022/07/24 07:23:52;;;;;;;1.65;0.90;;;;;;;25.36;52.71;100670.72;5040725;28;20564;-67
2022/07/24 07:26:18;;;;;;;1.30;1.20;;;;;;;25.54;52.13;100674.53;5042486;28;20111;-67
2022/07/24 07:28:43;;;;;;;1.77;1.00;;;;;;;25.66;51.59;100676.28;5060221;28;20031;-67
2022/07/24 07:31:09;;;;;;;1.73;0.95;;;;;;;25.77;51.44;100670.66;5076652;28;20063;-67
2022/07/24 07:33:34;;;;;;;1.92;1.00;;;;;;;25.87;51.04;100664.28;5060075;28;20432;-67
2022/07/24 07:36:00;;;;;;;1.83;1.00;;;;;;;25.96;50.73;100661.91;5077087;28;20075;-67
2022/07/24 07:38:25;;;;;;;1.55;0.80;;;;;;;26.10;50.18;100666.06;5077962;28;20024;-67
2022/07/24 07:40:50;;;;;;;2.35;1.00;;;;;;;26.22;50.25;100660.88;5076932;28;20405;-67
2022/07/24 07:43:16;;;;;;;2.63;1.00;;;;;;;26.34;49.37;100647.50;5076642;28;20059;-67
2022/07/24 07:45:41;;;;;;;1.58;1.00;;;;;;;26.48;49.23;100653.28;5060007;28;20052;-67
2022/07/24 07:48:07;;;;;;;1.13;0.90;;;;;;;26.65;48.67;100646.06;5056479;28;20079;-67
2022/07/24 07:50:32;;;;;;;1.90;0.90;;;;;;;26.73;48.74;100656.25;5076474;28;20062;-67
2022/07/24 07:52:58;;;;;;;1.35;1.00;;;;;;;26.88;48.38;100637.16;5076433;28;20029;-68
2022/07/24 07:55:23;;;;;;;1.80;0.85;;;;;;;27.00;48.18;100645.38;5026587;28;20032;-67
2022/07/24 07:57:49;;;;;;;2.95;1.08;;;;;;;27.14;47.97;100647.44;5075954;28;20051;-72
2022/07/24 08:00:15;;;;;;;1.58;1.00;;;;;;;27.31;47.83;100643.81;5056291;28;20482;-73
2022/07/24 08:02:40;;;;;;;3.40;1.13;;;;;;;27.49;47.21;100651.56;5076109;28;20036;-72
2022/07/24 08:05:06;;;;;;;1.35;0.73;;;;;;;27.65;47.07;100643.41;5076324;28;20044;-73
2022/07/24 08:07:32;;;;;;;3.63;1.13;;;;;;;27.76;47.11;100646.28;5076386;28;20064;-68
2022/07/24 08:09:57;;;;;;;3.63;0.88;;;;;;;27.89;46.77;100638.97;5077386;28;20542;-68
2022/07/24 08:12:23;;;;;;;4.07;1.00;;;;;;;28.00;46.26;100639.75;5040908;28;20021;-68
2022/07/24 08:14:48;;;;;;;6.55;1.20;;;;;;;28.13;45.83;100642.97;5059283;28;20028;-68
2022/07/24 08:17:14;;;;;;;1.35;0.80;;;;;;;28.27;45.51;100642.94;5059140;28;20032;-69
2022/07/24 08:19:40;;;;;;;0.82;0.80;;;;;;;28.43;45.03;100644.56;5056401;28;20074;-68
2022/07/24 08:22:06;;;;;;;2.30;0.90;;;;;;;28.57;45.26;100637.97;5059300;28;20104;-68
2022/07/24 08:24:32;;;;;;;2.75;0.90;;;;;;;28.73;44.58;100633.41;5075826;28;20036;-68
2022/07/24 08:26:58;;;;;;;1.35;0.80;;;;;;;28.91;44.35;100633.28;5058368;28;20047;-68
2022/07/24 08:29:24;;;;;;;1.27;0.90;;;;;;;29.04;43.92;100630.81;5059236;28;20028;-68
2022/07/24 08:31:49;;;;;;;2.78;0.60;;;;;;;29.19;43.98;100631.53;5076835;28;20056;-68
2022/07/24 08:34:15;;;;;;;3.17;0.90;;;;;;;29.28;43.32;100625.31;5075718;28;20033;-68
2022/07/24 08:36:40;;;;;;;2.13;0.82;;;;;;;29.46;42.67;100628.06;5040722;28;20040;-68
2022/07/24 08:39:06;;;;;;;1.58;0.70;;;;;;;29.55;42.50;100616.94;5058912;28;20392;-68
2022/07/24 08:41:33;;;;;;;1.30;0.60;;;;;;;29.70;41.49;100617.66;5058466;28;20028;-68
2022/07/24 08:43:59;;;;;;;1.73;0.70;;;;;;;29.80;42.25;100616.75;5059185;28;20066;-67
2022/07/24 08:46:25;;;;;;;2.40;0.80;;;;;;;29.91;41.50;100606.00;5075442;28;20033;-68
2022/07/24 08:48:50;;;;;;;1.60;0.75;;;;;;;29.98;40.90;100605.13;5042028;28;20025;-68
2022/07/24 08:51:15;;;;;;;0.80;0.63;;;;;;;30.06;41.57;100606.66;5058665;28;20493;-68
2022/07/24 08:53:42;;;;;;;1.33;0.70;;;;;;;30.15;40.97;100601.25;5058700;28;20041;-68
2022/07/24 08:56:08;;;;;;;0.80;0.70;;;;;;;30.24;38.25;100595.03;5055456;28;20583;-68
2022/07/24 08:58:37;;;;;;;0.93;0.68;;;;;;;30.39;39.49;100595.66;5058168;28;20045;-68
2022/07/24 09:01:03;;;;;;;1.80;0.90;;;;;;;30.48;39.26;100599.66;5075208;28;20032;-68
2022/07/24 09:03:42;;;;;;;0.82;0.57;;;;;;;30.57;38.98;100584.00;5075059;28;20036;-68
2022/07/24 09:06:09;;;;;;;3.80;0.70;;;;;;;30.71;38.82;100587.47;5051967;28;20056;-68
2022/07/24 09:08:34;;;;;;;2.70;0.70;;;;;;;30.78;37.98;100589.41;5058728;28;20480;-68
2022/07/24 09:11:04;;;;;;;2.13;0.70;;;;;;;30.84;38.65;100579.13;5075333;28;20099;-68
2022/07/24 09:14:29;;;;;;;0.85;0.60;;;;;;;30.89;38.38;100572.88;5058839;28;20040;-68
2022/07/24 09:16:23;;;;;;;2.35;0.60;;;;;;;31.04;37.78;100578.44;5080562;28;20059;-68
2022/07/24 09:19:07;;;;;;;0.88;0.70;;;;;;;31.13;37.28;100570.88;5054858;28;20029;-68
2022/07/24 09:21:34;;;;;;;0.77;0.68;;;;;;;31.25;36.28;100555.13;5058525;28;20392;-68
2022/07/24 09:24:02;;;;;;;1.15;0.55;;;;;;;31.34;36.89;100575.47;5058162;28;20040;-68
2022/07/24 09:26:51;;;;;;;2.08;0.80;;;;;;;31.51;35.69;100562.09;5058579;28;20489;-68
2022/07/24 09:29:16;;;;;;;1.58;0.68;;;;;;;31.63;35.91;100562.72;5059307;28;20025;-68
2022/07/24 09:31:55;;;;;;;1.10;0.70;;;;;;;31.78;35.27;100559.13;5041296;28;20070;-68
2022/07/24 09:34:22;;;;;;;1.25;0.90;;;;;;;31.86;34.92;100561.88;5058611;28;20032;-68
2022/07/24 09:36:58;;;;;;;1.90;1.02;;;;;;;32.01;34.60;100560.34;5058064;28;20111;-68
2022/07/24 09:39:25;;;;;;;1.85;0.70;;;;;;;32.10;34.66;100554.84;5057881;28;20028;-68
2022/07/24 09:41:54;;;;;;;2.13;0.63;;;;;;;32.17;34.96;100551.81;5074769;28;20104;-68
2022/07/24 09:44:20;;;;;;;1.45;0.80;;;;;;;32.23;34.35;100555.81;5058098;28;20094;-68
2022/07/24 09:46:56;;;;;;;1.73;0.70;;;;;;;32.27;33.58;100562.28;5057922;28;20036;-68
2022/07/24 09:49:22;;;;;;;5.05;0.80;;;;;;;32.37;33.78;100565.34;5058147;28;20063;-68
2022/07/24 09:52:11;;;;;;;1.55;0.77;;;;;;;32.46;34.36;100565.63;5057803;28;20040;-68
2022/07/24 09:54:41;;;;;;;2.15;0.80;;;;;;;32.59;34.17;100560.78;5076371;28;20036;-68
2022/07/24 09:57:19;;;;;;;1.67;1.00;;;;;;;32.69;34.33;100551.13;5062078;28;20108;-68
2022/07/24 09:59:48;;;;;;;2.15;0.80;;;;;;;32.81;34.66;100552.50;5078053;28;20052;-68
2022/07/24 10:02:14;;;;;;;1.00;0.90;;;;;;;32.96;34.70;100558.72;5078506;28;20080;-68
2022/07/24 10:04:41;;;;;;;1.98;0.60;;;;;;;33.06;34.84;100560.56;5078659;28;20100;-68
2022/07/24 10:07:07;;;;;;;1.27;0.80;;;;;;;33.21;34.09;100554.44;5061381;28;20036;-68
2022/07/24 10:09:32;;;;;;;0.80;0.65;;;;;;;33.34;34.21;100553.25;5061558;28;20029;-68
2022/07/24 10:11:57;;;;;;;1.85;0.80;;;;;;;33.41;31.34;100551.50;5061127;28;20369;-68
2022/07/24 10:14:24;;;;;;;2.13;1.00;;;;;;;33.51;31.66;100548.31;5060891;28;20032;-67
2022/07/24 10:16:54;;;;;;;1.30;0.90;;;;;;;33.60;31.38;100553.47;5061387;28;20588;-68
2022/07/24 10:19:20;;;;;;;0.88;0.80;;;;;;;33.74;31.05;100535.81;5061700;28;20033;-68
2022/07/24 10:21:56;;;;;;;1.58;0.80;;;;;;;33.83;31.10;100540.09;5077056;28;20033;-68
2022/07/24 10:24:42;;;;;;;2.58;1.00;;;;;;;33.93;30.26;100539.78;5061539;28;20644;-68
2022/07/24 10:27:07;;;;;;;1.65;0.70;;;;;;;34.05;30.82;100543.22;5078382;28;20047;-68
2022/07/24 10:29:34;;;;;;;2.63;0.85;;;;;;;34.17;30.17;100533.78;5044252;28;20028;-68
2022/07/24 10:31:59;;;;;;;2.35;0.90;;;;;;;34.27;30.77;100529.78;5077873;28;20040;-68
2022/07/24 10:34:48;;;;;;;1.38;0.70;;;;;;;34.38;29.61;100521.63;5061180;28;20032;-68
2022/07/24 10:37:35;;;;;;;1.40;0.77;;;;;;;34.48;29.46;100513.91;5060879;28;20029;-72
2022/07/24 10:40:22;;;;;;;1.52;0.90;;;;;;;34.63;29.66;100525.81;5061090;28;20033;-72
2022/07/24 10:43:08;;;;;;;1.48;0.80;;;;;;;34.72;28.78;100514.41;5078679;28;20044;-72
2022/07/24 10:45:34;;;;;;;2.80;0.98;;;;;;;34.78;27.89;100515.44;5078790;28;20024;-72
2022/07/24 10:48:22;;;;;;;3.22;1.00;;;;;;;34.82;27.90;100513.25;5077414;28;20052;-72
2022/07/24 10:50:57;;;;;;;1.15;0.70;;;;;;;34.90;27.75;100516.72;5073723;28;20082;-72
2022/07/24 10:53:26;;;;;;;3.10;0.82;;;;;;;35.01;27.72;100510.59;5078773;28;20041;-72
2022/07/24 10:55:52;;;;;;;2.95;1.15;;;;;;;35.07;27.60;100514.53;5078773;28;20084;-72
2022/07/24 10:58:20;;;;;;;1.08;0.90;;;;;;;35.20;28.19;100505.88;5078234;28;20475;-72
2022/07/24 11:00:46;;;;;;;2.65;1.08;;;;;;;35.27;27.61;100494.88;5077634;28;20086;-72
2022/07/24 11:03:26;;;;;;;3.10;1.02;;;;;;;35.30;27.18;100499.72;5078503;28;20039;-72
2022/07/24 11:06:08;;;;;;;3.00;0.90;;;;;;;35.33;26.79;100500.88;5076209;28;20053;-72
2022/07/24 11:08:38;;;;;;;;;;;;;;;35.30;26.64;100488.19;5077882;28;20084;-73
2022/07/24 11:11:18;;;;;;;2.60;0.95;;;;;;;35.35;26.14;100490.47;5078483;28;19939;-72
2022/07/24 11:13:45;;;;;;;1.85;0.90;;;;;;;35.37;26.81;100484.22;5077217;28;20454;-72
2022/07/24 11:16:10;;;;;;;1.80;0.90;;;;;;;35.41;26.70;100487.81;5078406;28;20028;-72
2022/07/24 11:18:59;;;;;;;1.50;1.00;;;;;;;35.42;26.50;100479.94;5076818;28;20040;-72
2022/07/24 11:21:31;;;;;;;1.30;0.90;;;;;;;35.44;25.85;100462.94;5077892;28;20679;-72
2022/07/24 11:24:21;;;;;;;1.23;0.90;;;;;;;35.52;26.25;100455.63;5078133;28;20036;-72